GIA009 WADD-WAAA
Flight info
| Callsign | GIA009 |
|---|---|
| Flight time | 0h 56m |
| Altitude | 35000 |
| Route | PEDET W41 LIPOT |
| Aircraft | B738/M-SDE2E3FGHIRWXY/LB1 |
Departure
| Time | 2026-04-22 13:48 |
|---|---|
| Airport | Denpasar I Gusti Ngurah Rai International Airport (WADD) |
Arrival
| Time | 2026-04-22 14:44 |
|---|---|
| Airport | Sultan Hasanuddin International Airport (WAAA) |
| Time | Latitude | Longitude | Altitude | Speed | Heading |
|---|---|---|---|---|---|
| 2026-04-22 13:35 | -8.74545 | 115.16934 | 32 ft | 0 kts | 358° |
| 2026-04-22 13:41 | -8.74561 | 115.16934 | 32 ft | 3 kts | 356° |
| 2026-04-22 13:41 | -8.74582 | 115.16936 | 32 ft | 3 kts | 354° |
| 2026-04-22 13:42 | -8.74602 | 115.16938 | 32 ft | 3 kts | 352° |
| 2026-04-22 13:42 | -8.74622 | 115.16941 | 32 ft | 3 kts | 348° |
| 2026-04-22 13:42 | -8.74642 | 115.16946 | 31 ft | 3 kts | 340° |
| 2026-04-22 13:42 | -8.74659 | 115.16955 | 31 ft | 3 kts | 318° |
| 2026-04-22 13:43 | -8.74669 | 115.16966 | 31 ft | 2 kts | 272° |
| 2026-04-22 13:43 | -8.74669 | 115.16969 | 31 ft | 1 kts | 267° |
| 2026-04-22 13:44 | -8.74669 | 115.16968 | 31 ft | 1 kts | 267° |
| 2026-04-22 13:45 | -8.74671 | 115.16928 | 31 ft | 11 kts | 268° |
| 2026-04-22 13:45 | -8.74675 | 115.16808 | 31 ft | 23 kts | 268° |
| 2026-04-22 13:45 | -8.74683 | 115.16629 | 30 ft | 28 kts | 269° |
| 2026-04-22 13:45 | -8.74693 | 115.16414 | 32 ft | 33 kts | 268° |
| 2026-04-22 13:46 | -8.74702 | 115.16167 | 32 ft | 38 kts | 266° |
| 2026-04-22 13:46 | -8.74713 | 115.15891 | 30 ft | 39 kts | 266° |
| 2026-04-22 13:46 | -8.74721 | 115.15677 | 31 ft | 27 kts | 268° |
| 2026-04-22 13:46 | -8.74728 | 115.15493 | 31 ft | 23 kts | 268° |
| 2026-04-22 13:47 | -8.74764 | 115.15401 | 31 ft | 21 kts | 208° |
| 2026-04-22 13:47 | -8.74894 | 115.15490 | 28 ft | 20 kts | 88° |
| 2026-04-22 13:47 | -8.74879 | 115.15857 | 27 ft | 93 kts | 88° |
| 2026-04-22 13:47 | -8.74848 | 115.16773 | 43 ft | 163 kts | 90° |
| 2026-04-22 13:48 | -8.74812 | 115.17997 | 646 ft | 185 kts | 89° |
| 2026-04-22 13:48 | -8.74791 | 115.19371 | 1362 ft | 203 kts | 88° |
| 2026-04-22 13:48 | -8.74751 | 115.20357 | 1670 ft | 222 kts | 87° |
| 2026-04-22 13:48 | -8.74491 | 115.21989 | 1870 ft | 248 kts | 65° |
| 2026-04-22 13:49 | -8.73449 | 115.23418 | 2300 ft | 258 kts | 48° |
| 2026-04-22 13:49 | -8.72233 | 115.24774 | 2929 ft | 262 kts | 47° |
| 2026-04-22 13:49 | -8.70995 | 115.26143 | 3681 ft | 265 kts | 48° |
| 2026-04-22 13:49 | -8.69760 | 115.27517 | 4607 ft | 264 kts | 48° |
| 2026-04-22 13:50 | -8.68520 | 115.28909 | 5413 ft | 268 kts | 48° |
| 2026-04-22 13:50 | -8.67269 | 115.30326 | 6204 ft | 272 kts | 49° |
| 2026-04-22 13:50 | -8.66009 | 115.31762 | 6959 ft | 275 kts | 49° |
| 2026-04-22 13:50 | -8.64734 | 115.33221 | 7718 ft | 278 kts | 49° |
| 2026-04-22 13:51 | -8.63466 | 115.34676 | 8472 ft | 281 kts | 49° |
| 2026-04-22 13:51 | -8.62171 | 115.36168 | 9246 ft | 284 kts | 49° |
| 2026-04-22 13:51 | -8.60861 | 115.37678 | 9990 ft | 287 kts | 49° |
| 2026-04-22 13:51 | -8.59539 | 115.39204 | 10684 ft | 290 kts | 49° |
| 2026-04-22 13:52 | -8.58203 | 115.40748 | 11372 ft | 293 kts | 49° |
| 2026-04-22 13:52 | -8.56850 | 115.42312 | 12057 ft | 297 kts | 49° |
| 2026-04-22 13:52 | -8.55486 | 115.43889 | 12751 ft | 299 kts | 49° |
| 2026-04-22 13:52 | -8.54109 | 115.45483 | 13428 ft | 303 kts | 49° |
| 2026-04-22 13:53 | -8.52690 | 115.47124 | 13844 ft | 315 kts | 49° |
| 2026-04-22 13:53 | -8.51228 | 115.48815 | 14356 ft | 321 kts | 49° |
| 2026-04-22 13:53 | -8.49771 | 115.50501 | 14969 ft | 323 kts | 49° |
| 2026-04-22 13:53 | -8.48284 | 115.52221 | 15587 ft | 326 kts | 49° |
| 2026-04-22 13:54 | -8.46787 | 115.53952 | 16187 ft | 329 kts | 49° |
| 2026-04-22 13:54 | -8.45274 | 115.55702 | 16762 ft | 333 kts | 49° |
| 2026-04-22 13:54 | -8.43745 | 115.57470 | 17353 ft | 336 kts | 49° |
| 2026-04-22 13:54 | -8.42202 | 115.59255 | 17952 ft | 338 kts | 49° |
| 2026-04-22 13:55 | -8.40645 | 115.61054 | 18481 ft | 342 kts | 49° |
| 2026-04-22 13:55 | -8.39072 | 115.62873 | 18966 ft | 345 kts | 49° |
| 2026-04-22 13:55 | -8.37489 | 115.64702 | 19472 ft | 347 kts | 49° |
| 2026-04-22 13:55 | -8.35896 | 115.66543 | 19979 ft | 350 kts | 49° |
| 2026-04-22 13:56 | -8.34288 | 115.68400 | 20469 ft | 353 kts | 49° |
| 2026-04-22 13:56 | -8.32666 | 115.70272 | 20953 ft | 355 kts | 49° |
| 2026-04-22 13:56 | -8.31033 | 115.72159 | 21434 ft | 358 kts | 49° |
| 2026-04-22 13:56 | -8.29380 | 115.74066 | 21897 ft | 361 kts | 49° |
| 2026-04-22 13:57 | -8.27718 | 115.75986 | 22365 ft | 365 kts | 49° |
| 2026-04-22 13:57 | -8.26061 | 115.77899 | 22824 ft | 367 kts | 49° |
| 2026-04-22 13:57 | -8.24372 | 115.79849 | 23345 ft | 367 kts | 48° |
| 2026-04-22 13:57 | -8.22706 | 115.81772 | 23821 ft | 364 kts | 48° |
| 2026-04-22 13:58 | -8.21047 | 115.83688 | 23869 ft | 366 kts | 48° |
| 2026-04-22 13:58 | -8.19338 | 115.85659 | 23925 ft | 379 kts | 48° |
| 2026-04-22 13:58 | -8.17571 | 115.87697 | 23935 ft | 392 kts | 49° |
| 2026-04-22 13:58 | -8.15747 | 115.89802 | 23932 ft | 405 kts | 49° |
| 2026-04-22 13:59 | -8.13864 | 115.91974 | 23943 ft | 416 kts | 49° |
| 2026-04-22 13:59 | -8.11931 | 115.94204 | 23934 ft | 426 kts | 49° |
| 2026-04-22 13:59 | -8.09953 | 115.96484 | 23940 ft | 436 kts | 49° |
| 2026-04-22 13:59 | -8.07938 | 115.98808 | 23940 ft | 444 kts | 49° |
| 2026-04-22 14:00 | -8.05929 | 116.01125 | 24267 ft | 441 kts | 49° |
| 2026-04-22 14:00 | -8.03940 | 116.03418 | 25065 ft | 427 kts | 49° |
| 2026-04-22 14:00 | -8.02015 | 116.05637 | 25879 ft | 414 kts | 49° |
| 2026-04-22 14:00 | -8.00127 | 116.07812 | 26441 ft | 410 kts | 49° |
| 2026-04-22 14:01 | -7.98244 | 116.09982 | 26825 ft | 411 kts | 49° |
| 2026-04-22 14:01 | -7.96381 | 116.12128 | 27533 ft | 400 kts | 49° |
| 2026-04-22 14:01 | -7.94562 | 116.14223 | 28178 ft | 396 kts | 49° |
| 2026-04-22 14:01 | -7.92741 | 116.16320 | 28521 ft | 397 kts | 49° |
| 2026-04-22 14:02 | -7.90938 | 116.18396 | 29181 ft | 391 kts | 49° |
| 2026-04-22 14:02 | -7.89151 | 116.20453 | 29648 ft | 390 kts | 49° |
| 2026-04-22 14:02 | -7.87359 | 116.22516 | 29939 ft | 393 kts | 49° |
| 2026-04-22 14:02 | -7.85567 | 116.24579 | 30483 ft | 386 kts | 49° |
| 2026-04-22 14:03 | -7.83803 | 116.26609 | 30943 ft | 383 kts | 49° |
| 2026-04-22 14:03 | -7.82049 | 116.28627 | 31335 ft | 380 kts | 49° |
| 2026-04-22 14:03 | -7.80321 | 116.30616 | 31839 ft | 375 kts | 49° |
| 2026-04-22 14:03 | -7.78601 | 116.32594 | 32127 ft | 376 kts | 49° |
| 2026-04-22 14:04 | -7.76887 | 116.34566 | 32316 ft | 380 kts | 49° |
| 2026-04-22 14:04 | -7.75132 | 116.36584 | 32440 ft | 386 kts | 49° |
| 2026-04-22 14:04 | -7.71526 | 116.40730 | 32555 ft | 400 kts | 49° |
| 2026-04-22 14:05 | -7.67787 | 116.45028 | 32676 ft | 413 kts | 49° |
| 2026-04-22 14:05 | -7.63934 | 116.49456 | 32788 ft | 426 kts | 49° |
| 2026-04-22 14:06 | -7.61979 | 116.51703 | 33151 ft | 423 kts | 49° |
| 2026-04-22 14:06 | -7.60053 | 116.53915 | 33744 ft | 415 kts | 49° |
| 2026-04-22 14:06 | -7.58171 | 116.56077 | 34257 ft | 407 kts | 49° |
| 2026-04-22 14:06 | -7.56313 | 116.58212 | 34660 ft | 403 kts | 49° |
| 2026-04-22 14:07 | -7.54489 | 116.60307 | 34918 ft | 402 kts | 49° |
| 2026-04-22 14:07 | -7.50739 | 116.64614 | 34932 ft | 415 kts | 49° |
| 2026-04-22 14:08 | -7.46945 | 116.69104 | 34941 ft | 427 kts | 50° |
| 2026-04-22 14:08 | -7.43073 | 116.73752 | 34942 ft | 439 kts | 50° |
| 2026-04-22 14:09 | -7.39093 | 116.78517 | 34934 ft | 450 kts | 50° |
| 2026-04-22 14:09 | -7.35009 | 116.83394 | 34933 ft | 460 kts | 50° |
| 2026-04-22 14:10 | -7.30835 | 116.88372 | 34934 ft | 469 kts | 50° |
| 2026-04-22 14:10 | -7.26616 | 116.93401 | 34935 ft | 476 kts | 50° |
| 2026-04-22 14:11 | -7.22322 | 116.98517 | 34927 ft | 480 kts | 50° |
| 2026-04-22 14:11 | -7.18003 | 117.03662 | 34918 ft | 480 kts | 50° |
| 2026-04-22 14:12 | -7.13695 | 117.08792 | 34921 ft | 479 kts | 50° |
| 2026-04-22 14:12 | -7.09392 | 117.13915 | 34923 ft | 479 kts | 50° |
| 2026-04-22 14:13 | -7.05092 | 117.19033 | 34924 ft | 479 kts | 50° |
| 2026-04-22 14:13 | -7.00809 | 117.24129 | 34927 ft | 479 kts | 50° |
| 2026-04-22 14:14 | -6.96504 | 117.29249 | 34922 ft | 479 kts | 50° |
| 2026-04-22 14:14 | -6.92195 | 117.34373 | 34924 ft | 480 kts | 50° |
| 2026-04-22 14:15 | -6.87878 | 117.39504 | 34926 ft | 480 kts | 50° |
| 2026-04-22 14:15 | -6.83554 | 117.44642 | 34917 ft | 479 kts | 50° |
| 2026-04-22 14:16 | -6.79320 | 117.49673 | 34910 ft | 465 kts | 50° |
| 2026-04-22 14:16 | -6.75161 | 117.54613 | 34914 ft | 460 kts | 50° |
| 2026-04-22 14:17 | -6.71028 | 117.59522 | 34924 ft | 458 kts | 50° |
| 2026-04-22 14:17 | -6.66875 | 117.64329 | 34911 ft | 458 kts | 46° |
| 2026-04-22 14:17 | -6.64572 | 117.66587 | 34613 ft | 465 kts | 43° |
| 2026-04-22 14:18 | -6.62169 | 117.68767 | 34424 ft | 464 kts | 42° |
| 2026-04-22 14:18 | -6.59755 | 117.70906 | 34200 ft | 460 kts | 42° |
| 2026-04-22 14:18 | -6.57371 | 117.73022 | 33997 ft | 454 kts | 42° |
| 2026-04-22 14:18 | -6.55018 | 117.75136 | 33792 ft | 453 kts | 42° |
| 2026-04-22 14:19 | -6.52685 | 117.77257 | 33571 ft | 451 kts | 43° |
| 2026-04-22 14:19 | -6.50371 | 117.79381 | 33362 ft | 450 kts | 43° |
| 2026-04-22 14:19 | -6.49621 | 117.80071 | 33298 ft | 449 kts | 43° |
| 2026-04-22 14:19 | -6.45794 | 117.83606 | 32960 ft | 447 kts | 43° |
| 2026-04-22 14:20 | -6.41240 | 117.87818 | 32567 ft | 443 kts | 43° |
| 2026-04-22 14:20 | -6.38970 | 117.89917 | 32371 ft | 442 kts | 43° |
| 2026-04-22 14:20 | -6.36711 | 117.92004 | 32171 ft | 440 kts | 43° |
| 2026-04-22 14:21 | -6.32218 | 117.96153 | 31782 ft | 436 kts | 43° |
| 2026-04-22 14:21 | -6.29995 | 117.98206 | 31589 ft | 434 kts | 43° |
| 2026-04-22 14:22 | -6.25595 | 118.02267 | 31218 ft | 429 kts | 43° |
| 2026-04-22 14:22 | -6.23400 | 118.04292 | 31026 ft | 427 kts | 43° |
| 2026-04-22 14:22 | -6.19040 | 118.08315 | 30651 ft | 423 kts | 43° |
| 2026-04-22 14:23 | -6.16881 | 118.10307 | 30462 ft | 421 kts | 43° |
| 2026-04-22 14:23 | -6.14733 | 118.12289 | 30278 ft | 418 kts | 43° |
| 2026-04-22 14:23 | -6.12593 | 118.14262 | 30092 ft | 416 kts | 43° |
| 2026-04-22 14:23 | -6.10468 | 118.16222 | 29893 ft | 414 kts | 43° |
| 2026-04-22 14:24 | -6.08343 | 118.18182 | 29686 ft | 412 kts | 43° |
| 2026-04-22 14:24 | -6.06231 | 118.20129 | 29490 ft | 410 kts | 43° |
| 2026-04-22 14:24 | -6.04134 | 118.22063 | 29302 ft | 408 kts | 43° |
| 2026-04-22 14:24 | -6.02046 | 118.23987 | 29121 ft | 406 kts | 43° |
| 2026-04-22 14:25 | -5.99969 | 118.25903 | 28938 ft | 405 kts | 43° |
| 2026-04-22 14:25 | -5.97802 | 118.27900 | 28751 ft | 404 kts | 43° |
| 2026-04-22 14:25 | -5.95832 | 118.29715 | 28582 ft | 403 kts | 43° |
| 2026-04-22 14:25 | -5.93767 | 118.31618 | 28403 ft | 402 kts | 43° |
| 2026-04-22 14:26 | -5.91707 | 118.33516 | 28227 ft | 402 kts | 43° |
| 2026-04-22 14:26 | -5.89674 | 118.35390 | 28049 ft | 402 kts | 43° |
| 2026-04-22 14:26 | -5.87613 | 118.37289 | 27869 ft | 402 kts | 43° |
| 2026-04-22 14:26 | -5.85553 | 118.39187 | 27693 ft | 402 kts | 43° |
| 2026-04-22 14:27 | -5.84160 | 118.40470 | 27572 ft | 402 kts | 43° |
| 2026-04-22 14:27 | -5.81542 | 118.43074 | 27297 ft | 397 kts | 51° |
| 2026-04-22 14:27 | -5.79997 | 118.45346 | 26919 ft | 393 kts | 61° |
| 2026-04-22 14:27 | -5.78729 | 118.47765 | 26469 ft | 391 kts | 62° |
| 2026-04-22 14:28 | -5.77487 | 118.50199 | 25967 ft | 391 kts | 63° |
| 2026-04-22 14:28 | -5.76253 | 118.52628 | 25519 ft | 390 kts | 63° |
| 2026-04-22 14:28 | -5.75021 | 118.55042 | 25128 ft | 387 kts | 62° |
| 2026-04-22 14:28 | -5.73792 | 118.57433 | 24735 ft | 384 kts | 62° |
| 2026-04-22 14:29 | -5.72566 | 118.59809 | 24351 ft | 382 kts | 62° |
| 2026-04-22 14:29 | -5.71341 | 118.62172 | 23948 ft | 380 kts | 62° |
| 2026-04-22 14:29 | -5.70120 | 118.64522 | 23574 ft | 379 kts | 62° |
| 2026-04-22 14:29 | -5.68903 | 118.66862 | 23144 ft | 377 kts | 62° |
| 2026-04-22 14:30 | -5.67695 | 118.69184 | 22734 ft | 374 kts | 62° |
| 2026-04-22 14:30 | -5.66495 | 118.71489 | 22197 ft | 374 kts | 62° |
| 2026-04-22 14:30 | -5.65284 | 118.73815 | 21490 ft | 377 kts | 62° |
| 2026-04-22 14:30 | -5.64087 | 118.76113 | 20825 ft | 373 kts | 62° |
| 2026-04-22 14:31 | -5.62889 | 118.78414 | 20172 ft | 370 kts | 62° |
| 2026-04-22 14:31 | -5.61702 | 118.80694 | 19519 ft | 367 kts | 62° |
| 2026-04-22 14:31 | -5.60521 | 118.82962 | 18893 ft | 364 kts | 62° |
| 2026-04-22 14:31 | -5.59353 | 118.85204 | 18235 ft | 362 kts | 62° |
| 2026-04-22 14:32 | -5.58189 | 118.87439 | 17484 ft | 360 kts | 62° |
| 2026-04-22 14:32 | -5.57031 | 118.89660 | 16739 ft | 358 kts | 62° |
| 2026-04-22 14:32 | -5.55878 | 118.91872 | 16014 ft | 356 kts | 62° |
| 2026-04-22 14:32 | -5.54734 | 118.94068 | 15307 ft | 354 kts | 62° |
| 2026-04-22 14:33 | -5.53595 | 118.96254 | 14615 ft | 352 kts | 63° |
| 2026-04-22 14:33 | -5.52461 | 118.98429 | 13933 ft | 350 kts | 63° |
| 2026-04-22 14:33 | -5.51353 | 119.00555 | 13209 ft | 348 kts | 63° |
| 2026-04-22 14:33 | -5.50233 | 119.02703 | 12474 ft | 345 kts | 63° |
| 2026-04-22 14:34 | -5.49130 | 119.04819 | 11932 ft | 338 kts | 63° |
| 2026-04-22 14:34 | -5.48048 | 119.06893 | 11395 ft | 331 kts | 63° |
| 2026-04-22 14:34 | -5.46990 | 119.08923 | 10870 ft | 325 kts | 63° |
| 2026-04-22 14:34 | -5.45947 | 119.10923 | 10357 ft | 320 kts | 63° |
| 2026-04-22 14:35 | -5.44922 | 119.12887 | 9851 ft | 316 kts | 63° |
| 2026-04-22 14:35 | -5.44251 | 119.14173 | 9494 ft | 313 kts | 63° |
| 2026-04-22 14:35 | -5.43248 | 119.16096 | 8988 ft | 308 kts | 63° |
| 2026-04-22 14:35 | -5.42264 | 119.17983 | 8566 ft | 301 kts | 63° |
| 2026-04-22 14:36 | -5.41305 | 119.19821 | 8152 ft | 295 kts | 63° |
| 2026-04-22 14:36 | -5.40049 | 119.22228 | 7603 ft | 287 kts | 63° |
| 2026-04-22 14:36 | -5.39440 | 119.23394 | 7333 ft | 284 kts | 63° |
| 2026-04-22 14:36 | -5.38530 | 119.25138 | 6930 ft | 280 kts | 63° |
| 2026-04-22 14:37 | -5.37632 | 119.26859 | 6529 ft | 276 kts | 63° |
| 2026-04-22 14:37 | -5.36748 | 119.28553 | 6131 ft | 273 kts | 63° |
| 2026-04-22 14:37 | -5.35596 | 119.30759 | 5741 ft | 264 kts | 63° |
| 2026-04-22 14:37 | -5.35022 | 119.31860 | 5612 ft | 264 kts | 63° |
| 2026-04-22 14:38 | -5.34161 | 119.33510 | 5386 ft | 269 kts | 63° |
| 2026-04-22 14:38 | -5.33302 | 119.35156 | 5140 ft | 268 kts | 63° |
| 2026-04-22 14:38 | -5.32441 | 119.36806 | 4900 ft | 265 kts | 63° |
| 2026-04-22 14:38 | -5.31587 | 119.38440 | 4657 ft | 263 kts | 63° |
| 2026-04-22 14:39 | -5.30741 | 119.40060 | 4407 ft | 261 kts | 63° |
| 2026-04-22 14:39 | -5.29899 | 119.41661 | 4155 ft | 259 kts | 60° |
| 2026-04-22 14:39 | -5.28686 | 119.42969 | 3896 ft | 258 kts | 37° |
| 2026-04-22 14:40 | -5.25691 | 119.44863 | 3519 ft | 245 kts | 31° |
| 2026-04-22 14:40 | -5.24246 | 119.45694 | 3280 ft | 233 kts | 30° |
| 2026-04-22 14:40 | -5.22888 | 119.46477 | 2998 ft | 216 kts | 31° |
| 2026-04-22 14:40 | -5.21641 | 119.47199 | 2743 ft | 198 kts | 31° |
| 2026-04-22 14:41 | -5.20495 | 119.47863 | 2485 ft | 187 kts | 31° |
| 2026-04-22 14:41 | -5.19393 | 119.48503 | 2275 ft | 172 kts | 30° |
| 2026-04-22 14:41 | -5.18383 | 119.49088 | 2055 ft | 167 kts | 30° |
| 2026-04-22 14:41 | -5.17385 | 119.49667 | 1831 ft | 166 kts | 30° |
| 2026-04-22 14:42 | -5.16377 | 119.50251 | 1624 ft | 168 kts | 30° |
| 2026-04-22 14:42 | -5.15366 | 119.50837 | 1407 ft | 167 kts | 30° |
| 2026-04-22 14:42 | -5.14369 | 119.51415 | 1199 ft | 164 kts | 30° |
| 2026-04-22 14:42 | -5.13384 | 119.51985 | 987 ft | 165 kts | 31° |
| 2026-04-22 14:43 | -5.12384 | 119.52565 | 787 ft | 166 kts | 31° |
| 2026-04-22 14:43 | -5.11394 | 119.53139 | 571 ft | 163 kts | 31° |
| 2026-04-22 14:43 | -5.10417 | 119.53711 | 349 ft | 162 kts | 31° |
| 2026-04-22 14:43 | -5.09437 | 119.54292 | 148 ft | 164 kts | 30° |
| 2026-04-22 14:44 | -5.08487 | 119.54832 | 42 ft | 147 kts | 32° |
| 2026-04-22 14:44 | -5.07753 | 119.55258 | 41 ft | 92 kts | 29° |
| 2026-04-22 14:44 | -5.07431 | 119.55415 | 40 ft | 34 kts | 11° |
| 2026-04-22 14:44 | -5.07258 | 119.55428 | 39 ft | 14 kts | 360° |
| 2026-04-22 14:45 | -5.07224 | 119.55424 | 40 ft | 1 kts | 354° |
| 2026-04-22 14:45 | -5.07201 | 119.55427 | 40 ft | 7 kts | 6° |
| 2026-04-22 14:45 | -5.07139 | 119.55430 | 40 ft | 8 kts | 0° |
| 2026-04-22 14:45 | -5.07135 | 119.55430 | 40 ft | 1 kts | 0° |
| 2026-04-22 14:46 | -5.07131 | 119.55430 | 40 ft | 1 kts | 0° |
| 2026-04-22 14:46 | -5.07127 | 119.55430 | 40 ft | 1 kts | 0° |
| 2026-04-22 14:47 | -5.07125 | 119.55429 | 40 ft | 1 kts | 346° |
| 2026-04-22 14:47 | -5.07124 | 119.55425 | 40 ft | 0 kts | 300° |
| 2026-04-22 14:47 | -5.07127 | 119.55421 | 40 ft | 1 kts | 245° |
| 2026-04-22 14:48 | -5.07135 | 119.55413 | 39 ft | 3 kts | 224° |
| 2026-04-22 14:48 | -5.07161 | 119.55393 | 40 ft | 7 kts | 214° |
| 2026-04-22 14:48 | -5.07227 | 119.55354 | 40 ft | 15 kts | 209° |
| 2026-04-22 14:48 | -5.07337 | 119.55292 | 40 ft | 21 kts | 210° |
| 2026-04-22 14:49 | -5.07470 | 119.55216 | 40 ft | 22 kts | 210° |
| 2026-04-22 14:49 | -5.07596 | 119.55141 | 40 ft | 8 kts | 210° |
| 2026-04-22 14:49 | -5.07599 | 119.55139 | 40 ft | 0 kts | 210° |
| 2026-04-22 14:51 | -5.07606 | 119.55135 | 40 ft | 6 kts | 211° |
| 2026-04-22 14:51 | -5.07611 | 119.55071 | 40 ft | 13 kts | 294° |
| 2026-04-22 14:52 | -5.07587 | 119.54980 | 40 ft | 12 kts | 261° |
| 2026-04-22 14:52 | -5.07641 | 119.54918 | 40 ft | 12 kts | 212° |
| 2026-04-22 14:52 | -5.07713 | 119.54875 | 40 ft | 12 kts | 211° |
| 2026-04-22 14:52 | -5.07784 | 119.54833 | 40 ft | 11 kts | 211° |
| 2026-04-22 14:53 | -5.07833 | 119.54793 | 40 ft | 8 kts | 238° |
| 2026-04-22 14:53 | -5.07839 | 119.54761 | 40 ft | 4 kts | 284° |
| 2026-04-22 14:53 | -5.07829 | 119.54737 | 39 ft | 4 kts | 296° |
| 2026-04-22 14:53 | -5.07818 | 119.54717 | 40 ft | 0 kts | 300° |
| 2026-04-22 14:54 | -5.07815 | 119.54712 | 38 ft | 1 kts | 300° |